sensor_id;sensor_type;location;lat;lon;timestamp;temperature;humidity
7694;DHT22;3889;48.162;11.510;2022-10-04T00:02:17;6.60;99.90
7694;DHT22;3889;48.162;11.510;2022-10-04T00:04:49;6.60;99.90
7694;DHT22;3889;48.162;11.510;2022-10-04T00:07:21;6.50;99.90
7694;DHT22;3889;48.162;11.510;2022-10-04T00:09:54;6.50;99.90
7694;DHT22;3889;48.162;11.510;2022-10-04T00:12:25;6.50;99.90
7694;DHT22;3889;48.162;11.510;2022-10-04T00:14:57;6.60;99.90
7694;DHT22;3889;48.162;11.510;2022-10-04T00:17:27;6.70;99.90
7694;DHT22;3889;48.162;11.510;2022-10-04T00:19:57;6.70;99.90
7694;DHT22;3889;48.162;11.510;2022-10-04T00:22:26;6.70;99.90
7694;DHT22;3889;48.162;11.510;2022-10-04T00:25:18;6.70;99.90
7694;DHT22;3889;48.162;11.510;2022-10-04T00:28:15;6.70;99.90
7694;DHT22;3889;48.162;11.510;2022-10-04T00:31:21;6.70;99.90
7694;DHT22;3889;48.162;11.510;2022-10-04T00:33:53;6.80;99.90
7694;DHT22;3889;48.162;11.510;2022-10-04T00:36:40;6.80;99.90
7694;DHT22;3889;48.162;11.510;2022-10-04T00:39:17;6.80;99.90
7694;DHT22;3889;48.162;11.510;2022-10-04T00:44:53;6.90;99.90
7694;DHT22;3889;48.162;11.510;2022-10-04T00:47:26;6.80;99.90
7694;DHT22;3889;48.162;11.510;2022-10-04T00:50:06;6.80;99.90
7694;DHT22;3889;48.162;11.510;2022-10-04T00:52:41;6.80;99.90
7694;DHT22;3889;48.162;11.510;2022-10-04T00:55:19;6.70;99.90
7694;DHT22;3889;48.162;11.510;2022-10-04T00:57:52;6.70;99.90
7694;DHT22;3889;48.162;11.510;2022-10-04T01:00:25;6.80;99.90
7694;DHT22;3889;48.162;11.510;2022-10-04T01:02:58;6.70;99.90
7694;DHT22;3889;48.162;11.510;2022-10-04T01:05:31;6.70;99.90
7694;DHT22;3889;48.162;11.510;2022-10-04T01:08:04;6.70;99.90
7694;DHT22;3889;48.162;11.510;2022-10-04T01:10:38;6.70;99.90
7694;DHT22;3889;48.162;11.510;2022-10-04T01:13:11;6.70;99.90
7694;DHT22;3889;48.162;11.510;2022-10-04T01:15:42;6.60;99.90
7694;DHT22;3889;48.162;11.510;2022-10-04T01:18:14;6.50;99.90
7694;DHT22;3889;48.162;11.510;2022-10-04T01:20:52;6.50;99.90
7694;DHT22;3889;48.162;11.510;2022-10-04T01:23:40;6.50;99.90
7694;DHT22;3889;48.162;11.510;2022-10-04T01:26:37;6.50;99.90
7694;DHT22;3889;48.162;11.510;2022-10-04T01:29:08;6.40;99.90
7694;DHT22;3889;48.162;11.510;2022-10-04T01:31:40;6.30;99.90
7694;DHT22;3889;48.162;11.510;2022-10-04T01:34:12;6.30;99.90
7694;DHT22;3889;48.162;11.510;2022-10-04T01:36:40;6.40;99.90
7694;DHT22;3889;48.162;11.510;2022-10-04T01:39:13;6.40;99.90
7694;DHT22;3889;48.162;11.510;2022-10-04T01:41:47;6.40;99.90
7694;DHT22;3889;48.162;11.510;2022-10-04T01:44:23;6.40;99.90
7694;DHT22;3889;48.162;11.510;2022-10-04T01:46:54;6.40;99.90
7694;DHT22;3889;48.162;11.510;2022-10-04T01:49:26;6.30;99.90
7694;DHT22;3889;48.162;11.510;2022-10-04T01:52:00;6.40;99.90
7694;DHT22;3889;48.162;11.510;2022-10-04T01:54:34;6.30;99.90
7694;DHT22;3889;48.162;11.510;2022-10-04T01:57:10;6.20;99.90
7694;DHT22;3889;48.162;11.510;2022-10-04T01:59:42;6.20;99.90
7694;DHT22;3889;48.162;11.510;2022-10-04T02:02:19;6.10;99.90
7694;DHT22;3889;48.162;11.510;2022-10-04T02:04:51;6.10;99.90
7694;DHT22;3889;48.162;11.510;2022-10-04T02:07:21;6.10;99.90
7694;DHT22;3889;48.162;11.510;2022-10-04T02:09:56;6.10;99.90
7694;DHT22;3889;48.162;11.510;2022-10-04T02:12:25;6.10;99.90
7694;DHT22;3889;48.162;11.510;2022-10-04T02:14:59;6.00;99.90
7694;DHT22;3889;48.162;11.510;2022-10-04T02:17:29;6.10;99.90
7694;DHT22;3889;48.162;11.510;2022-10-04T02:19:59;6.10;99.90
7694;DHT22;3889;48.162;11.510;2022-10-04T02:22:29;6.10;99.90
7694;DHT22;3889;48.162;11.510;2022-10-04T02:24:59;6.10;99.90
7694;DHT22;3889;48.162;11.510;2022-10-04T02:27:28;5.90;99.90
7694;DHT22;3889;48.162;11.510;2022-10-04T02:30:01;5.90;99.90
7694;DHT22;3889;48.162;11.510;2022-10-04T02:32:30;5.90;99.90
7694;DHT22;3889;48.162;11.510;2022-10-04T02:35:17;5.90;99.90
7694;DHT22;3889;48.162;11.510;2022-10-04T02:37:47;5.90;99.90
7694;DHT22;3889;48.162;11.510;2022-10-04T02:40:22;5.90;99.90
7694;DHT22;3889;48.162;11.510;2022-10-04T02:42:57;5.90;99.90
7694;DHT22;3889;48.162;11.510;2022-10-04T02:45:35;5.80;99.90
7694;DHT22;3889;48.162;11.510;2022-10-04T02:48:18;5.80;99.90
7694;DHT22;3889;48.162;11.510;2022-10-04T02:50:50;5.80;99.90
7694;DHT22;3889;48.162;11.510;2022-10-04T02:53:25;5.80;99.90
7694;DHT22;3889;48.162;11.510;2022-10-04T02:55:57;5.80;99.90
7694;DHT22;3889;48.162;11.510;2022-10-04T02:58:26;5.80;99.90
7694;DHT22;3889;48.162;11.510;2022-10-04T03:00:57;5.80;99.90
7694;DHT22;3889;48.162;11.510;2022-10-04T03:03:26;5.80;99.90
7694;DHT22;3889;48.162;11.510;2022-10-04T03:06:02;5.80;99.90
7694;DHT22;3889;48.162;11.510;2022-10-04T03:08:34;5.80;99.90
7694;DHT22;3889;48.162;11.510;2022-10-04T03:11:04;5.80;99.90
7694;DHT22;3889;48.162;11.510;2022-10-04T03:13:32;5.70;99.90
7694;DHT22;3889;48.162;11.510;2022-10-04T03:16:03;5.70;99.90
7694;DHT22;3889;48.162;11.510;2022-10-04T03:18:33;5.60;99.90
7694;DHT22;3889;48.162;11.510;2022-10-04T03:21:04;5.50;99.90
7694;DHT22;3889;48.162;11.510;2022-10-04T03:23:34;5.60;99.90
7694;DHT22;3889;48.162;11.510;2022-10-04T03:26:16;5.60;99.90
7694;DHT22;3889;48.162;11.510;2022-10-04T03:28:46;5.60;99.90
7694;DHT22;3889;48.162;11.510;2022-10-04T03:31:15;5.50;99.90
7694;DHT22;3889;48.162;11.510;2022-10-04T03:33:45;5.60;99.90
7694;DHT22;3889;48.162;11.510;2022-10-04T03:36:16;5.60;99.90
7694;DHT22;3889;48.162;11.510;2022-10-04T03:38:46;5.60;99.90
7694;DHT22;3889;48.162;11.510;2022-10-04T03:41:16;5.60;99.90
7694;DHT22;3889;48.162;11.510;2022-10-04T03:43:45;5.60;99.90
7694;DHT22;3889;48.162;11.510;2022-10-04T03:46:16;5.60;99.90
7694;DHT22;3889;48.162;11.510;2022-10-04T03:48:48;5.60;99.90
7694;DHT22;3889;48.162;11.510;2022-10-04T03:51:19;5.60;99.90
7694;DHT22;3889;48.162;11.510;2022-10-04T03:53:50;5.60;99.90
7694;DHT22;3889;48.162;11.510;2022-10-04T03:56:25;5.60;99.90
7694;DHT22;3889;48.162;11.510;2022-10-04T03:58:54;5.60;99.90
7694;DHT22;3889;48.162;11.510;2022-10-04T04:01:38;5.60;99.90
7694;DHT22;3889;48.162;11.510;2022-10-04T04:04:16;5.60;99.90
7694;DHT22;3889;48.162;11.510;2022-10-04T04:06:51;5.60;99.90
7694;DHT22;3889;48.162;11.510;2022-10-04T04:09:24;5.60;99.90
7694;DHT22;3889;48.162;11.510;2022-10-04T04:11:55;5.60;99.90
7694;DHT22;3889;48.162;11.510;2022-10-04T04:14:25;5.50;99.90
7694;DHT22;3889;48.162;11.510;2022-10-04T04:17:27;5.50;99.90
7694;DHT22;3889;48.162;11.510;2022-10-04T04:19:57;5.40;99.90
7694;DHT22;3889;48.162;11.510;2022-10-04T04:22:33;5.40;99.90
7694;DHT22;3889;48.162;11.510;2022-10-04T04:25:05;5.40;99.90
7694;DHT22;3889;48.162;11.510;2022-10-04T04:27:37;5.40;99.90
7694;DHT22;3889;48.162;11.510;2022-10-04T04:30:07;5.40;99.90
7694;DHT22;3889;48.162;11.510;2022-10-04T04:32:37;5.40;99.90
7694;DHT22;3889;48.162;11.510;2022-10-04T04:35:20;5.40;99.90
7694;DHT22;3889;48.162;11.510;2022-10-04T04:38:02;5.30;99.90
7694;DHT22;3889;48.162;11.510;2022-10-04T04:40:31;5.30;99.90
7694;DHT22;3889;48.162;11.510;2022-10-04T04:43:01;5.30;99.90
7694;DHT22;3889;48.162;11.510;2022-10-04T04:45:31;5.30;99.90
7694;DHT22;3889;48.162;11.510;2022-10-04T04:48:23;5.40;99.90
7694;DHT22;3889;48.162;11.510;2022-10-04T05:11:21;5.20;99.90
7694;DHT22;3889;48.162;11.510;2022-10-04T05:13:53;5.10;99.90
7694;DHT22;3889;48.162;11.510;2022-10-04T05:16:26;5.20;99.90
7694;DHT22;3889;48.162;11.510;2022-10-04T05:19:01;5.20;99.90
7694;DHT22;3889;48.162;11.510;2022-10-04T05:21:30;5.20;99.90
7694;DHT22;3889;48.162;11.510;2022-10-04T05:24:08;5.20;99.90
7694;DHT22;3889;48.162;11.510;2022-10-04T05:26:38;5.10;99.90
7694;DHT22;3889;48.162;11.510;2022-10-04T05:29:11;5.10;99.90
7694;DHT22;3889;48.162;11.510;2022-10-04T05:31:45;5.20;99.90
7694;DHT22;3889;48.162;11.510;2022-10-04T05:34:18;5.20;99.90
7694;DHT22;3889;48.162;11.510;2022-10-04T05:37:05;5.20;99.90
7694;DHT22;3889;48.162;11.510;2022-10-04T05:39:40;5.20;99.90
7694;DHT22;3889;48.162;11.510;2022-10-04T05:42:18;5.20;99.90
7694;DHT22;3889;48.162;11.510;2022-10-04T05:44:50;5.30;99.90
7694;DHT22;3889;48.162;11.510;2022-10-04T05:47:20;5.40;99.90
7694;DHT22;3889;48.162;11.510;2022-10-04T05:49:52;5.50;99.90
7694;DHT22;3889;48.162;11.510;2022-10-04T05:52:26;5.70;99.90
7694;DHT22;3889;48.162;11.510;2022-10-04T05:55:27;5.70;99.90
7694;DHT22;3889;48.162;11.510;2022-10-04T05:58:11;5.80;99.90
7694;DHT22;3889;48.162;11.510;2022-10-04T06:00:55;5.90;99.90
7694;DHT22;3889;48.162;11.510;2022-10-04T06:03:43;6.10;99.90
7694;DHT22;3889;48.162;11.510;2022-10-04T06:06:17;6.20;99.90
7694;DHT22;3889;48.162;11.510;2022-10-04T06:08:55;6.30;99.90
7694;DHT22;3889;48.162;11.510;2022-10-04T06:11:34;6.40;99.90
7694;DHT22;3889;48.162;11.510;2022-10-04T06:14:26;6.60;99.90
7694;DHT22;3889;48.162;11.510;2022-10-04T06:17:13;6.70;99.90
7694;DHT22;3889;48.162;11.510;2022-10-04T06:19:56;6.90;99.90
7694;DHT22;3889;48.162;11.510;2022-10-04T06:22:26;7.00;99.90
7694;DHT22;3889;48.162;11.510;2022-10-04T06:24:58;7.10;99.90
7694;DHT22;3889;48.162;11.510;2022-10-04T06:27:30;7.00;99.90
7694;DHT22;3889;48.162;11.510;2022-10-04T06:30:05;7.10;99.90
7694;DHT22;3889;48.162;11.510;2022-10-04T06:32:56;7.20;99.90
7694;DHT22;3889;48.162;11.510;2022-10-04T06:42:08;7.30;99.90
7694;DHT22;3889;48.162;11.510;2022-10-04T06:44:47;7.30;99.90
7694;DHT22;3889;48.162;11.510;2022-10-04T06:47:30;7.40;99.90
7694;DHT22;3889;48.162;11.510;2022-10-04T06:50:13;7.60;99.90
7694;DHT22;3889;48.162;11.510;2022-10-04T06:52:56;7.60;99.90
7694;DHT22;3889;48.162;11.510;2022-10-04T06:55:54;7.70;99.90
7694;DHT22;3889;48.162;11.510;2022-10-04T06:58:40;7.90;99.90
7694;DHT22;3889;48.162;11.510;2022-10-04T07:01:20;8.00;99.90
7694;DHT22;3889;48.162;11.510;2022-10-04T07:03:52;8.10;99.90
7694;DHT22;3889;48.162;11.510;2022-10-04T07:06:25;8.20;99.90
7694;DHT22;3889;48.162;11.510;2022-10-04T07:08:55;8.30;99.90
7694;DHT22;3889;48.162;11.510;2022-10-04T07:11:27;8.50;99.90
7694;DHT22;3889;48.162;11.510;2022-10-04T07:14:10;8.60;99.90
7694;DHT22;3889;48.162;11.510;2022-10-04T07:16:44;8.70;99.90
7694;DHT22;3889;48.162;11.510;2022-10-04T07:19:28;8.80;99.90
7694;DHT22;3889;48.162;11.510;2022-10-04T07:22:07;8.90;99.90
7694;DHT22;3889;48.162;11.510;2022-10-04T07:24:46;9.00;99.90
7694;DHT22;3889;48.162;11.510;2022-10-04T07:27:22;9.20;99.90
7694;DHT22;3889;48.162;11.510;2022-10-04T07:29:54;9.40;99.90
7694;DHT22;3889;48.162;11.510;2022-10-04T07:32:24;9.50;99.90
7694;DHT22;3889;48.162;11.510;2022-10-04T07:35:01;9.50;99.90
7694;DHT22;3889;48.162;11.510;2022-10-04T07:37:33;9.70;99.90
7694;DHT22;3889;48.162;11.510;2022-10-04T07:40:06;9.70;99.90
7694;DHT22;3889;48.162;11.510;2022-10-04T07:42:39;9.90;99.90
7694;DHT22;3889;48.162;11.510;2022-10-04T07:45:16;10.00;99.90
7694;DHT22;3889;48.162;11.510;2022-10-04T07:47:46;10.10;99.90
7694;DHT22;3889;48.162;11.510;2022-10-04T07:50:24;10.20;99.90
7694;DHT22;3889;48.162;11.510;2022-10-04T07:52:58;10.30;99.90
7694;DHT22;3889;48.162;11.510;2022-10-04T07:55:46;10.30;99.90
7694;DHT22;3889;48.162;11.510;2022-10-04T07:58:36;10.50;99.90
7694;DHT22;3889;48.162;11.510;2022-10-04T08:01:20;10.60;99.90
7694;DHT22;3889;48.162;11.510;2022-10-04T08:04:03;10.70;99.90
7694;DHT22;3889;48.162;11.510;2022-10-04T08:06:36;10.80;99.90
7694;DHT22;3889;48.162;11.510;2022-10-04T08:09:35;10.80;99.90
7694;DHT22;3889;48.162;11.510;2022-10-04T08:12:13;10.90;99.90
7694;DHT22;3889;48.162;11.510;2022-10-04T08:15:07;11.00;99.90
7694;DHT22;3889;48.162;11.510;2022-10-04T08:17:46;11.10;99.90
7694;DHT22;3889;48.162;11.510;2022-10-04T08:20:33;11.10;99.90
7694;DHT22;3889;48.162;11.510;2022-10-04T08:23:40;11.30;99.90
7694;DHT22;3889;48.162;11.510;2022-10-04T08:26:21;11.50;99.90
7694;DHT22;3889;48.162;11.510;2022-10-04T08:29:02;11.60;99.90
7694;DHT22;3889;48.162;11.510;2022-10-04T08:32:01;11.80;99.90
7694;DHT22;3889;48.162;11.510;2022-10-04T08:34:53;11.80;99.90
7694;DHT22;3889;48.162;11.510;2022-10-04T08:37:34;11.90;99.90
7694;DHT22;3889;48.162;11.510;2022-10-04T08:49:38;12.10;99.90
7694;DHT22;3889;48.162;11.510;2022-10-04T08:52:44;12.20;99.90
7694;DHT22;3889;48.162;11.510;2022-10-04T09:01:30;12.70;99.90
7694;DHT22;3889;48.162;11.510;2022-10-04T09:10:50;12.80;99.90
7694;DHT22;3889;48.162;11.510;2022-10-04T09:13:32;13.00;99.90
7694;DHT22;3889;48.162;11.510;2022-10-04T09:16:13;13.10;99.90
7694;DHT22;3889;48.162;11.510;2022-10-04T09:18:49;13.10;99.90
7694;DHT22;3889;48.162;11.510;2022-10-04T09:21:25;13.10;99.90
7694;DHT22;3889;48.162;11.510;2022-10-04T09:24:17;13.10;99.90
7694;DHT22;3889;48.162;11.510;2022-10-04T09:26:51;13.10;99.90
7694;DHT22;3889;48.162;11.510;2022-10-04T09:29:45;13.10;99.90
7694;DHT22;3889;48.162;11.510;2022-10-04T09:32:37;13.10;99.90
7694;DHT22;3889;48.162;11.510;2022-10-04T09:38:20;13.30;99.90
7694;DHT22;3889;48.162;11.510;2022-10-04T09:41:25;13.30;99.90
7694;DHT22;3889;48.162;11.510;2022-10-04T09:47:16;13.50;99.90
7694;DHT22;3889;48.162;11.510;2022-10-04T09:50:21;13.60;99.90
7694;DHT22;3889;48.162;11.510;2022-10-04T09:53:03;13.70;99.90
7694;DHT22;3889;48.162;11.510;2022-10-04T09:55:51;13.70;99.90
7694;DHT22;3889;48.162;11.510;2022-10-04T09:58:56;13.80;99.90
7694;DHT22;3889;48.162;11.510;2022-10-04T10:01:35;13.90;99.90
7694;DHT22;3889;48.162;11.510;2022-10-04T10:04:22;13.90;99.90
7694;DHT22;3889;48.162;11.510;2022-10-04T10:07:19;14.00;99.90
7694;DHT22;3889;48.162;11.510;2022-10-04T10:09:53;14.00;99.90
7694;DHT22;3889;48.162;11.510;2022-10-04T10:13:08;13.90;99.90
7694;DHT22;3889;48.162;11.510;2022-10-04T10:16:03;14.00;99.90
7694;DHT22;3889;48.162;11.510;2022-10-04T10:18:45;14.10;99.90
7694;DHT22;3889;48.162;11.510;2022-10-04T10:21:30;14.00;99.90
7694;DHT22;3889;48.162;11.510;2022-10-04T10:27:18;14.00;99.90
7694;DHT22;3889;48.162;11.510;2022-10-04T10:30:19;13.90;99.90
7694;DHT22;3889;48.162;11.510;2022-10-04T10:33:23;14.00;99.90
7694;DHT22;3889;48.162;11.510;2022-10-04T10:36:11;13.90;99.90
7694;DHT22;3889;48.162;11.510;2022-10-04T10:38:53;13.90;99.90
7694;DHT22;3889;48.162;11.510;2022-10-04T10:41:38;13.90;99.90
7694;DHT22;3889;48.162;11.510;2022-10-04T10:44:19;14.00;99.90
7694;DHT22;3889;48.162;11.510;2022-10-04T10:47:02;13.90;99.90
7694;DHT22;3889;48.162;11.510;2022-10-04T10:49:52;13.90;99.90
7694;DHT22;3889;48.162;11.510;2022-10-04T10:52:54;13.90;99.90
7694;DHT22;3889;48.162;11.510;2022-10-04T10:55:55;13.90;99.90
7694;DHT22;3889;48.162;11.510;2022-10-04T10:58:53;13.90;99.90
7694;DHT22;3889;48.162;11.510;2022-10-04T11:01:48;14.10;99.90
7694;DHT22;3889;48.162;11.510;2022-10-04T11:04:38;14.10;99.90
7694;DHT22;3889;48.162;11.510;2022-10-04T11:07:36;14.10;99.90
7694;DHT22;3889;48.162;11.510;2022-10-04T11:10:23;14.10;99.90
7694;DHT22;3889;48.162;11.510;2022-10-04T11:13:16;14.10;99.90
7694;DHT22;3889;48.162;11.510;2022-10-04T11:16:17;14.10;99.90
7694;DHT22;3889;48.162;11.510;2022-10-04T11:19:14;14.30;99.90
7694;DHT22;3889;48.162;11.510;2022-10-04T11:25:34;14.30;99.90
7694;DHT22;3889;48.162;11.510;2022-10-04T11:28:12;14.30;99.90
7694;DHT22;3889;48.162;11.510;2022-10-04T11:31:07;14.20;99.90
7694;DHT22;3889;48.162;11.510;2022-10-04T11:34:07;14.20;99.90
7694;DHT22;3889;48.162;11.510;2022-10-04T11:36:53;14.30;99.90
7694;DHT22;3889;48.162;11.510;2022-10-04T11:39:45;14.30;99.90
7694;DHT22;3889;48.162;11.510;2022-10-04T11:42:27;14.40;99.90
7694;DHT22;3889;48.162;11.510;2022-10-04T11:45:15;14.60;99.90
7694;DHT22;3889;48.162;11.510;2022-10-04T11:47:57;14.60;99.90
7694;DHT22;3889;48.162;11.510;2022-10-04T11:50:35;14.70;99.90
7694;DHT22;3889;48.162;11.510;2022-10-04T11:56:37;14.60;99.90
7694;DHT22;3889;48.162;11.510;2022-10-04T11:59:20;14.60;99.90
7694;DHT22;3889;48.162;11.510;2022-10-04T12:02:22;14.50;99.90
7694;DHT22;3889;48.162;11.510;2022-10-04T12:05:15;14.60;99.90
7694;DHT22;3889;48.162;11.510;2022-10-04T12:07:55;14.70;99.90
7694;DHT22;3889;48.162;11.510;2022-10-04T12:10:28;14.80;99.90
7694;DHT22;3889;48.162;11.510;2022-10-04T12:16:14;14.90;99.90
7694;DHT22;3889;48.162;11.510;2022-10-04T12:22:24;14.90;99.90
7694;DHT22;3889;48.162;11.510;2022-10-04T12:25:24;14.90;99.90
7694;DHT22;3889;48.162;11.510;2022-10-04T12:28:25;15.00;99.90
7694;DHT22;3889;48.162;11.510;2022-10-04T12:31:18;15.10;99.90
7694;DHT22;3889;48.162;11.510;2022-10-04T12:33:57;15.30;99.90
7694;DHT22;3889;48.162;11.510;2022-10-04T12:39:30;15.50;99.90
7694;DHT22;3889;48.162;11.510;2022-10-04T12:42:18;15.50;99.90
7694;DHT22;3889;48.162;11.510;2022-10-04T12:45:01;15.60;99.90
7694;DHT22;3889;48.162;11.510;2022-10-04T12:47:59;15.40;99.90
7694;DHT22;3889;48.162;11.510;2022-10-04T12:50:39;15.50;99.90
7694;DHT22;3889;48.162;11.510;2022-10-04T12:53:17;15.60;99.90
7694;DHT22;3889;48.162;11.510;2022-10-04T12:55:59;15.50;99.90
7694;DHT22;3889;48.162;11.510;2022-10-04T12:58:32;15.50;99.90
7694;DHT22;3889;48.162;11.510;2022-10-04T13:01:16;15.40;99.90
7694;DHT22;3889;48.162;11.510;2022-10-04T13:04:07;15.40;99.90
7694;DHT22;3889;48.162;11.510;2022-10-04T13:06:49;15.30;99.90
7694;DHT22;3889;48.162;11.510;2022-10-04T13:09:24;15.40;99.90
7694;DHT22;3889;48.162;11.510;2022-10-04T13:12:06;15.30;99.90
7694;DHT22;3889;48.162;11.510;2022-10-04T13:15:01;15.30;99.90
7694;DHT22;3889;48.162;11.510;2022-10-04T13:17:41;15.20;99.90
7694;DHT22;3889;48.162;11.510;2022-10-04T13:20:37;15.30;99.90
7694;DHT22;3889;48.162;11.510;2022-10-04T13:23:12;15.30;99.90
7694;DHT22;3889;48.162;11.510;2022-10-04T13:25:59;15.30;99.90
7694;DHT22;3889;48.162;11.510;2022-10-04T13:28:34;15.30;99.90
7694;DHT22;3889;48.162;11.510;2022-10-04T13:31:11;15.30;99.90
7694;DHT22;3889;48.162;11.510;2022-10-04T13:33:45;15.30;99.90
7694;DHT22;3889;48.162;11.510;2022-10-04T13:36:20;15.30;99.90
7694;DHT22;3889;48.162;11.510;2022-10-04T13:39:05;15.30;99.90
7694;DHT22;3889;48.162;11.510;2022-10-04T13:41:59;15.20;99.90
7694;DHT22;3889;48.162;11.510;2022-10-04T13:44:39;15.20;99.90
7694;DHT22;3889;48.162;11.510;2022-10-04T13:50:34;15.20;99.90
7694;DHT22;3889;48.162;11.510;2022-10-04T13:53:14;15.30;99.90
7694;DHT22;3889;48.162;11.510;2022-10-04T13:56:05;15.30;99.90
7694;DHT22;3889;48.162;11.510;2022-10-04T13:58:59;15.20;99.90
7694;DHT22;3889;48.162;11.510;2022-10-04T14:04:48;15.10;99.90
7694;DHT22;3889;48.162;11.510;2022-10-04T14:07:49;15.20;99.90
7694;DHT22;3889;48.162;11.510;2022-10-04T14:10:36;15.20;99.90
7694;DHT22;3889;48.162;11.510;2022-10-04T14:13:38;15.30;99.90
7694;DHT22;3889;48.162;11.510;2022-10-04T14:16:24;15.30;99.90
7694;DHT22;3889;48.162;11.510;2022-10-04T14:19:23;15.30;99.90
7694;DHT22;3889;48.162;11.510;2022-10-04T14:31:29;15.40;99.90
7694;DHT22;3889;48.162;11.510;2022-10-04T14:34:30;15.40;99.90
7694;DHT22;3889;48.162;11.510;2022-10-04T14:40:23;15.30;99.90
7694;DHT22;3889;48.162;11.510;2022-10-04T14:43:34;15.30;99.90
7694;DHT22;3889;48.162;11.510;2022-10-04T14:46:16;15.40;99.90
7694;DHT22;3889;48.162;11.510;2022-10-04T14:49:01;15.40;99.90
7694;DHT22;3889;48.162;11.510;2022-10-04T14:54:47;15.50;99.90
7694;DHT22;3889;48.162;11.510;2022-10-04T14:57:22;15.50;99.90
7694;DHT22;3889;48.162;11.510;2022-10-04T15:00:07;15.50;99.90
7694;DHT22;3889;48.162;11.510;2022-10-04T15:02:56;15.40;99.90
7694;DHT22;3889;48.162;11.510;2022-10-04T15:05:44;15.50;99.90
7694;DHT22;3889;48.162;11.510;2022-10-04T15:11:38;15.50;99.90
7694;DHT22;3889;48.162;11.510;2022-10-04T15:14:25;15.70;99.90
7694;DHT22;3889;48.162;11.510;2022-10-04T15:16:56;16.20;99.90
7694;DHT22;3889;48.162;11.510;2022-10-04T15:19:28;16.20;99.90
7694;DHT22;3889;48.162;11.510;2022-10-04T15:22:04;18.10;99.90
7694;DHT22;3889;48.162;11.510;2022-10-04T15:24:44;19.50;99.90
7694;DHT22;3889;48.162;11.510;2022-10-04T15:30:28;20.30;99.90
7694;DHT22;3889;48.162;11.510;2022-10-04T15:33:23;19.20;99.90
7694;DHT22;3889;48.162;11.510;2022-10-04T15:36:14;18.10;99.90
7694;DHT22;3889;48.162;11.510;2022-10-04T15:38:47;17.30;99.90
7694;DHT22;3889;48.162;11.510;2022-10-04T15:41:18;16.80;99.90
7694;DHT22;3889;48.162;11.510;2022-10-04T15:44:19;16.60;99.90
7694;DHT22;3889;48.162;11.510;2022-10-04T15:46:56;16.20;99.90
7694;DHT22;3889;48.162;11.510;2022-10-04T15:49:49;15.90;99.90
7694;DHT22;3889;48.162;11.510;2022-10-04T15:53:06;15.60;99.90
7694;DHT22;3889;48.162;11.510;2022-10-04T15:56:09;15.30;99.90
7694;DHT22;3889;48.162;11.510;2022-10-04T15:58:49;15.20;99.90
7694;DHT22;3889;48.162;11.510;2022-10-04T16:01:33;15.00;99.90
7694;DHT22;3889;48.162;11.510;2022-10-04T16:04:16;14.80;99.90
7694;DHT22;3889;48.162;11.510;2022-10-04T16:06:52;14.70;99.90
7694;DHT22;3889;48.162;11.510;2022-10-04T16:09:28;14.60;99.90
7694;DHT22;3889;48.162;11.510;2022-10-04T16:12:19;14.50;99.90
7694;DHT22;3889;48.162;11.510;2022-10-04T16:15:10;14.40;99.90
7694;DHT22;3889;48.162;11.510;2022-10-04T16:17:57;14.40;99.90
7694;DHT22;3889;48.162;11.510;2022-10-04T16:20:49;14.30;99.90
7694;DHT22;3889;48.162;11.510;2022-10-04T16:23:32;14.10;99.90
7694;DHT22;3889;48.162;11.510;2022-10-04T16:26:02;14.00;99.90
7694;DHT22;3889;48.162;11.510;2022-10-04T16:28:42;13.90;99.90
7694;DHT22;3889;48.162;11.510;2022-10-04T16:31:27;13.80;99.90
7694;DHT22;3889;48.162;11.510;2022-10-04T16:37:11;13.60;99.90
7694;DHT22;3889;48.162;11.510;2022-10-04T16:39:50;13.50;99.90
7694;DHT22;3889;48.162;11.510;2022-10-04T16:42:40;13.40;99.90
7694;DHT22;3889;48.162;11.510;2022-10-04T16:45:32;13.20;99.90
7694;DHT22;3889;48.162;11.510;2022-10-04T16:48:05;13.10;99.90
7694;DHT22;3889;48.162;11.510;2022-10-04T16:51:01;12.90;99.90
7694;DHT22;3889;48.162;11.510;2022-10-04T16:53:43;12.90;99.90
7694;DHT22;3889;48.162;11.510;2022-10-04T16:56:17;12.70;99.90
7694;DHT22;3889;48.162;11.510;2022-10-04T16:58:55;12.60;99.90
7694;DHT22;3889;48.162;11.510;2022-10-04T17:01:45;12.50;99.90
7694;DHT22;3889;48.162;11.510;2022-10-04T17:04:46;12.40;99.90
7694;DHT22;3889;48.162;11.510;2022-10-04T17:07:26;12.30;99.90
7694;DHT22;3889;48.162;11.510;2022-10-04T17:10:16;12.30;99.90
7694;DHT22;3889;48.162;11.510;2022-10-04T17:12:53;12.20;99.90
7694;DHT22;3889;48.162;11.510;2022-10-04T17:15:40;12.00;99.90
7694;DHT22;3889;48.162;11.510;2022-10-04T17:18:16;12.00;99.90
7694;DHT22;3889;48.162;11.510;2022-10-04T17:20:50;11.80;99.90
7694;DHT22;3889;48.162;11.510;2022-10-04T17:23:37;11.80;99.90
7694;DHT22;3889;48.162;11.510;2022-10-04T17:26:20;11.70;99.90
7694;DHT22;3889;48.162;11.510;2022-10-04T17:28:55;11.60;99.90
7694;DHT22;3889;48.162;11.510;2022-10-04T17:31:30;11.50;99.90
7694;DHT22;3889;48.162;11.510;2022-10-04T17:34:07;11.40;99.90
7694;DHT22;3889;48.162;11.510;2022-10-04T17:36:40;11.40;99.90
7694;DHT22;3889;48.162;11.510;2022-10-04T17:39:34;11.40;99.90
7694;DHT22;3889;48.162;11.510;2022-10-04T17:42:14;11.30;99.90
7694;DHT22;3889;48.162;11.510;2022-10-04T17:45:00;11.20;99.90
7694;DHT22;3889;48.162;11.510;2022-10-04T17:47:35;11.20;99.90
7694;DHT22;3889;48.162;11.510;2022-10-04T17:50:22;11.20;99.90
7694;DHT22;3889;48.162;11.510;2022-10-04T17:53:16;11.10;99.90
7694;DHT22;3889;48.162;11.510;2022-10-04T17:56:05;11.10;99.90
7694;DHT22;3889;48.162;11.510;2022-10-04T17:58:41;11.10;99.90
7694;DHT22;3889;48.162;11.510;2022-10-04T18:01:16;11.10;99.90
7694;DHT22;3889;48.162;11.510;2022-10-04T18:03:48;11.00;99.90
7694;DHT22;3889;48.162;11.510;2022-10-04T18:06:28;11.00;99.90
7694;DHT22;3889;48.162;11.510;2022-10-04T18:09:02;11.00;99.90
7694;DHT22;3889;48.162;11.510;2022-10-04T18:11:39;10.90;99.90
7694;DHT22;3889;48.162;11.510;2022-10-04T18:14:13;10.90;99.90
7694;DHT22;3889;48.162;11.510;2022-10-04T18:16:52;10.80;99.90
7694;DHT22;3889;48.162;11.510;2022-10-04T18:19:35;10.80;99.90
7694;DHT22;3889;48.162;11.510;2022-10-04T18:22:11;10.70;99.90
7694;DHT22;3889;48.162;11.510;2022-10-04T18:24:41;10.70;99.90
7694;DHT22;3889;48.162;11.510;2022-10-04T18:27:18;10.60;99.90
7694;DHT22;3889;48.162;11.510;2022-10-04T18:29:57;10.50;99.90
7694;DHT22;3889;48.162;11.510;2022-10-04T18:32:34;10.50;99.90
7694;DHT22;3889;48.162;11.510;2022-10-04T18:35:19;10.50;99.90
7694;DHT22;3889;48.162;11.510;2022-10-04T18:37:48;10.40;99.90
7694;DHT22;3889;48.162;11.510;2022-10-04T18:40:18;10.40;99.90
7694;DHT22;3889;48.162;11.510;2022-10-04T18:42:51;10.40;99.90
7694;DHT22;3889;48.162;11.510;2022-10-04T18:45:24;10.30;99.90
7694;DHT22;3889;48.162;11.510;2022-10-04T18:47:56;10.30;99.90
7694;DHT22;3889;48.162;11.510;2022-10-04T18:50:33;10.30;99.90
7694;DHT22;3889;48.162;11.510;2022-10-04T18:53:34;10.30;99.90
7694;DHT22;3889;48.162;11.510;2022-10-04T18:56:07;10.30;99.90
7694;DHT22;3889;48.162;11.510;2022-10-04T18:58:59;10.30;99.90
7694;DHT22;3889;48.162;11.510;2022-10-04T19:01:56;10.20;99.90
7694;DHT22;3889;48.162;11.510;2022-10-04T19:04:48;10.20;99.90
7694;DHT22;3889;48.162;11.510;2022-10-04T19:07:25;10.10;99.90
7694;DHT22;3889;48.162;11.510;2022-10-04T19:10:14;10.10;99.90